sensor_id;sensor_type;location;lat;lon;timestamp;temperature;humidity
17364;DHT22;8799;43.594;13.526;2023-04-28T00:00:54;19.50;99.90
17364;DHT22;8799;43.594;13.526;2023-04-28T00:03:21;19.50;99.90
17364;DHT22;8799;43.594;13.526;2023-04-28T00:05:52;19.50;99.90
17364;DHT22;8799;43.594;13.526;2023-04-28T00:08:19;19.50;99.90
17364;DHT22;8799;43.594;13.526;2023-04-28T00:10:50;19.50;99.90
17364;DHT22;8799;43.594;13.526;2023-04-28T00:13:18;19.60;99.90
17364;DHT22;8799;43.594;13.526;2023-04-28T00:15:45;19.50;99.90
17364;DHT22;8799;43.594;13.526;2023-04-28T00:18:13;19.50;99.90
17364;DHT22;8799;43.594;13.526;2023-04-28T00:20:41;19.50;99.90
17364;DHT22;8799;43.594;13.526;2023-04-28T00:23:10;19.60;99.90
17364;DHT22;8799;43.594;13.526;2023-04-28T00:25:38;19.50;99.90
17364;DHT22;8799;43.594;13.526;2023-04-28T00:28:07;19.50;99.90
17364;DHT22;8799;43.594;13.526;2023-04-28T00:30:34;19.50;99.90
17364;DHT22;8799;43.594;13.526;2023-04-28T00:33:02;19.50;99.90
17364;DHT22;8799;43.594;13.526;2023-04-28T00:35:30;19.50;99.90
17364;DHT22;8799;43.594;13.526;2023-04-28T00:37:58;19.50;99.90
17364;DHT22;8799;43.594;13.526;2023-04-28T00:40:33;19.50;99.90
17364;DHT22;8799;43.594;13.526;2023-04-28T00:43:01;19.50;99.90
17364;DHT22;8799;43.594;13.526;2023-04-28T00:45:29;19.50;99.90
17364;DHT22;8799;43.594;13.526;2023-04-28T00:47:58;19.50;99.90
17364;DHT22;8799;43.594;13.526;2023-04-28T00:50:25;19.50;99.90
17364;DHT22;8799;43.594;13.526;2023-04-28T00:52:53;19.50;99.90
17364;DHT22;8799;43.594;13.526;2023-04-28T00:55:24;19.50;99.90
17364;DHT22;8799;43.594;13.526;2023-04-28T00:57:54;19.50;99.90
17364;DHT22;8799;43.594;13.526;2023-04-28T01:00:22;19.50;99.90
17364;DHT22;8799;43.594;13.526;2023-04-28T01:02:51;19.50;99.90
17364;DHT22;8799;43.594;13.526;2023-04-28T01:05:20;19.50;99.90
17364;DHT22;8799;43.594;13.526;2023-04-28T01:07:48;19.50;99.90
17364;DHT22;8799;43.594;13.526;2023-04-28T01:10:16;19.50;99.90
17364;DHT22;8799;43.594;13.526;2023-04-28T01:12:44;19.50;99.90
17364;DHT22;8799;43.594;13.526;2023-04-28T01:15:15;19.50;99.90
17364;DHT22;8799;43.594;13.526;2023-04-28T01:17:44;19.50;99.90
17364;DHT22;8799;43.594;13.526;2023-04-28T01:20:12;19.50;99.90
17364;DHT22;8799;43.594;13.526;2023-04-28T01:22:40;19.50;99.90
17364;DHT22;8799;43.594;13.526;2023-04-28T01:25:10;19.50;99.90
17364;DHT22;8799;43.594;13.526;2023-04-28T01:27:38;19.50;99.90
17364;DHT22;8799;43.594;13.526;2023-04-28T01:30:07;19.50;99.90
17364;DHT22;8799;43.594;13.526;2023-04-28T01:32:35;19.50;99.90
17364;DHT22;8799;43.594;13.526;2023-04-28T01:35:03;19.50;99.90
17364;DHT22;8799;43.594;13.526;2023-04-28T01:37:30;19.50;99.90
17364;DHT22;8799;43.594;13.526;2023-04-28T01:39:58;19.50;99.90
17364;DHT22;8799;43.594;13.526;2023-04-28T01:42:27;19.50;99.90
17364;DHT22;8799;43.594;13.526;2023-04-28T01:44:54;19.50;99.90
17364;DHT22;8799;43.594;13.526;2023-04-28T01:47:22;19.50;99.90
17364;DHT22;8799;43.594;13.526;2023-04-28T01:49:50;19.50;99.90
17364;DHT22;8799;43.594;13.526;2023-04-28T01:52:18;19.50;99.90
17364;DHT22;8799;43.594;13.526;2023-04-28T01:54:47;19.50;99.90
17364;DHT22;8799;43.594;13.526;2023-04-28T01:57:14;19.50;99.90
17364;DHT22;8799;43.594;13.526;2023-04-28T01:59:43;19.50;99.90
17364;DHT22;8799;43.594;13.526;2023-04-28T02:02:11;19.50;99.90
17364;DHT22;8799;43.594;13.526;2023-04-28T02:04:39;19.50;99.90
17364;DHT22;8799;43.594;13.526;2023-04-28T02:07:07;19.50;99.90
17364;DHT22;8799;43.594;13.526;2023-04-28T02:09:35;19.50;99.90
17364;DHT22;8799;43.594;13.526;2023-04-28T02:12:03;19.50;99.90
17364;DHT22;8799;43.594;13.526;2023-04-28T02:14:31;19.40;99.90
17364;DHT22;8799;43.594;13.526;2023-04-28T02:17:00;19.40;99.90
17364;DHT22;8799;43.594;13.526;2023-04-28T02:19:30;19.50;99.90
17364;DHT22;8799;43.594;13.526;2023-04-28T02:21:57;19.50;99.90
17364;DHT22;8799;43.594;13.526;2023-04-28T02:24:25;19.50;99.90
17364;DHT22;8799;43.594;13.526;2023-04-28T02:26:53;19.50;99.90
17364;DHT22;8799;43.594;13.526;2023-04-28T02:29:20;19.40;99.90
17364;DHT22;8799;43.594;13.526;2023-04-28T02:31:49;19.50;99.90
17364;DHT22;8799;43.594;13.526;2023-04-28T02:34:18;19.40;99.90
17364;DHT22;8799;43.594;13.526;2023-04-28T02:36:46;19.40;99.90
17364;DHT22;8799;43.594;13.526;2023-04-28T02:39:13;19.40;99.90
17364;DHT22;8799;43.594;13.526;2023-04-28T02:41:40;19.40;99.90
17364;DHT22;8799;43.594;13.526;2023-04-28T02:44:08;19.40;99.90
17364;DHT22;8799;43.594;13.526;2023-04-28T02:46:37;19.40;99.90
17364;DHT22;8799;43.594;13.526;2023-04-28T02:49:05;19.40;99.90
17364;DHT22;8799;43.594;13.526;2023-04-28T02:51:34;19.40;99.90
17364;DHT22;8799;43.594;13.526;2023-04-28T02:54:02;19.40;99.90
17364;DHT22;8799;43.594;13.526;2023-04-28T02:56:30;19.40;99.90
17364;DHT22;8799;43.594;13.526;2023-04-28T02:58:58;19.30;99.90
17364;DHT22;8799;43.594;13.526;2023-04-28T03:01:26;19.40;99.90
17364;DHT22;8799;43.594;13.526;2023-04-28T03:03:54;19.40;99.90
17364;DHT22;8799;43.594;13.526;2023-04-28T03:06:22;19.40;99.90
17364;DHT22;8799;43.594;13.526;2023-04-28T03:08:51;19.40;99.90
17364;DHT22;8799;43.594;13.526;2023-04-28T03:11:19;19.30;99.90
17364;DHT22;8799;43.594;13.526;2023-04-28T03:13:47;19.40;99.90
17364;DHT22;8799;43.594;13.526;2023-04-28T03:16:15;19.30;99.90
17364;DHT22;8799;43.594;13.526;2023-04-28T03:18:43;19.30;99.90
17364;DHT22;8799;43.594;13.526;2023-04-28T03:21:11;19.30;99.90
17364;DHT22;8799;43.594;13.526;2023-04-28T03:23:43;19.40;99.90
17364;DHT22;8799;43.594;13.526;2023-04-28T03:26:12;19.40;99.90
17364;DHT22;8799;43.594;13.526;2023-04-28T03:28:40;19.30;99.90
17364;DHT22;8799;43.594;13.526;2023-04-28T03:31:08;19.30;99.90
17364;DHT22;8799;43.594;13.526;2023-04-28T03:33:35;19.30;99.90
17364;DHT22;8799;43.594;13.526;2023-04-28T03:36:03;19.30;99.90
17364;DHT22;8799;43.594;13.526;2023-04-28T03:38:31;19.40;99.90
17364;DHT22;8799;43.594;13.526;2023-04-28T03:40:59;19.30;99.90
17364;DHT22;8799;43.594;13.526;2023-04-28T03:43:28;19.30;99.90
17364;DHT22;8799;43.594;13.526;2023-04-28T03:45:56;19.30;99.90
17364;DHT22;8799;43.594;13.526;2023-04-28T03:48:24;19.30;99.90
17364;DHT22;8799;43.594;13.526;2023-04-28T03:50:52;19.30;99.90
17364;DHT22;8799;43.594;13.526;2023-04-28T03:53:20;19.30;99.90
17364;DHT22;8799;43.594;13.526;2023-04-28T03:55:48;19.30;99.90
17364;DHT22;8799;43.594;13.526;2023-04-28T03:58:15;19.30;99.90
17364;DHT22;8799;43.594;13.526;2023-04-28T04:00:44;19.30;99.90
17364;DHT22;8799;43.594;13.526;2023-04-28T04:03:12;19.30;99.90
17364;DHT22;8799;43.594;13.526;2023-04-28T04:05:40;19.30;99.90
17364;DHT22;8799;43.594;13.526;2023-04-28T04:08:07;19.30;99.90
17364;DHT22;8799;43.594;13.526;2023-04-28T04:10:35;19.30;99.90
17364;DHT22;8799;43.594;13.526;2023-04-28T04:13:02;19.30;99.90
17364;DHT22;8799;43.594;13.526;2023-04-28T04:15:30;19.30;99.90
17364;DHT22;8799;43.594;13.526;2023-04-28T04:18:00;19.30;99.90
17364;DHT22;8799;43.594;13.526;2023-04-28T04:20:28;19.30;99.90
17364;DHT22;8799;43.594;13.526;2023-04-28T04:22:56;19.30;99.90
17364;DHT22;8799;43.594;13.526;2023-04-28T04:25:23;19.30;99.90
17364;DHT22;8799;43.594;13.526;2023-04-28T04:27:51;19.30;99.90
17364;DHT22;8799;43.594;13.526;2023-04-28T04:30:19;19.30;99.90
17364;DHT22;8799;43.594;13.526;2023-04-28T04:32:46;19.30;99.90
17364;DHT22;8799;43.594;13.526;2023-04-28T04:35:16;19.30;99.90
17364;DHT22;8799;43.594;13.526;2023-04-28T04:37:44;19.20;99.90
17364;DHT22;8799;43.594;13.526;2023-04-28T04:40:12;19.30;99.90
17364;DHT22;8799;43.594;13.526;2023-04-28T04:42:40;19.20;99.90
17364;DHT22;8799;43.594;13.526;2023-04-28T04:45:09;19.20;99.90
17364;DHT22;8799;43.594;13.526;2023-04-28T04:47:37;19.20;99.90
17364;DHT22;8799;43.594;13.526;2023-04-28T04:50:05;19.20;99.90
17364;DHT22;8799;43.594;13.526;2023-04-28T04:52:35;19.20;99.90
17364;DHT22;8799;43.594;13.526;2023-04-28T04:55:03;19.20;99.90
17364;DHT22;8799;43.594;13.526;2023-04-28T04:57:31;19.20;99.90
17364;DHT22;8799;43.594;13.526;2023-04-28T04:59:59;19.20;99.90
17364;DHT22;8799;43.594;13.526;2023-04-28T05:02:27;19.20;99.90
17364;DHT22;8799;43.594;13.526;2023-04-28T05:04:55;19.20;99.90
17364;DHT22;8799;43.594;13.526;2023-04-28T05:07:24;19.20;99.90
17364;DHT22;8799;43.594;13.526;2023-04-28T05:09:54;19.20;99.90
17364;DHT22;8799;43.594;13.526;2023-04-28T05:12:22;19.20;99.90
17364;DHT22;8799;43.594;13.526;2023-04-28T05:14:50;19.20;99.90
17364;DHT22;8799;43.594;13.526;2023-04-28T05:17:17;19.20;99.90
17364;DHT22;8799;43.594;13.526;2023-04-28T05:19:44;19.20;99.90
17364;DHT22;8799;43.594;13.526;2023-04-28T05:22:12;19.20;99.90
17364;DHT22;8799;43.594;13.526;2023-04-28T05:24:40;19.20;99.90
17364;DHT22;8799;43.594;13.526;2023-04-28T05:27:09;19.20;99.90
17364;DHT22;8799;43.594;13.526;2023-04-28T05:29:37;19.20;99.90
17364;DHT22;8799;43.594;13.526;2023-04-28T05:32:05;19.20;99.90
17364;DHT22;8799;43.594;13.526;2023-04-28T05:34:32;19.20;99.90
17364;DHT22;8799;43.594;13.526;2023-04-28T05:37:00;19.20;99.90
17364;DHT22;8799;43.594;13.526;2023-04-28T05:39:27;19.10;99.90
17364;DHT22;8799;43.594;13.526;2023-04-28T05:41:55;19.10;99.90
17364;DHT22;8799;43.594;13.526;2023-04-28T05:44:24;19.20;99.90
17364;DHT22;8799;43.594;13.526;2023-04-28T05:46:52;19.10;99.90
17364;DHT22;8799;43.594;13.526;2023-04-28T05:49:20;19.20;99.90
17364;DHT22;8799;43.594;13.526;2023-04-28T05:51:49;19.10;99.90
17364;DHT22;8799;43.594;13.526;2023-04-28T05:54:16;19.10;99.90
17364;DHT22;8799;43.594;13.526;2023-04-28T05:56:44;19.10;99.90
17364;DHT22;8799;43.594;13.526;2023-04-28T05:59:13;19.10;99.90
17364;DHT22;8799;43.594;13.526;2023-04-28T06:01:43;19.10;99.90
17364;DHT22;8799;43.594;13.526;2023-04-28T06:04:11;19.10;99.90
17364;DHT22;8799;43.594;13.526;2023-04-28T06:06:44;19.10;99.90
17364;DHT22;8799;43.594;13.526;2023-04-28T06:09:12;19.10;99.90
17364;DHT22;8799;43.594;13.526;2023-04-28T06:11:40;19.10;99.90
17364;DHT22;8799;43.594;13.526;2023-04-28T06:14:08;19.10;99.90
17364;DHT22;8799;43.594;13.526;2023-04-28T06:16:36;19.10;99.90
17364;DHT22;8799;43.594;13.526;2023-04-28T06:19:05;19.10;99.90
17364;DHT22;8799;43.594;13.526;2023-04-28T06:21:33;19.10;99.90
17364;DHT22;8799;43.594;13.526;2023-04-28T06:24:02;19.10;99.90
17364;DHT22;8799;43.594;13.526;2023-04-28T06:26:31;19.10;99.90
17364;DHT22;8799;43.594;13.526;2023-04-28T06:28:59;19.10;99.90
17364;DHT22;8799;43.594;13.526;2023-04-28T06:31:27;19.10;99.90
17364;DHT22;8799;43.594;13.526;2023-04-28T06:33:55;19.10;99.90
17364;DHT22;8799;43.594;13.526;2023-04-28T06:36:24;19.10;99.90
17364;DHT22;8799;43.594;13.526;2023-04-28T06:38:52;19.10;99.90
17364;DHT22;8799;43.594;13.526;2023-04-28T06:41:20;19.10;99.90
17364;DHT22;8799;43.594;13.526;2023-04-28T06:43:48;19.10;99.90
17364;DHT22;8799;43.594;13.526;2023-04-28T06:46:16;19.00;99.90
17364;DHT22;8799;43.594;13.526;2023-04-28T06:48:44;19.00;99.90
17364;DHT22;8799;43.594;13.526;2023-04-28T06:51:16;19.00;99.90
17364;DHT22;8799;43.594;13.526;2023-04-28T06:53:45;19.00;99.90
17364;DHT22;8799;43.594;13.526;2023-04-28T06:56:15;19.00;99.90
17364;DHT22;8799;43.594;13.526;2023-04-28T06:58:44;19.00;99.90
17364;DHT22;8799;43.594;13.526;2023-04-28T07:01:12;19.00;99.90
17364;DHT22;8799;43.594;13.526;2023-04-28T07:03:40;19.00;99.90
17364;DHT22;8799;43.594;13.526;2023-04-28T07:06:09;19.00;99.90
17364;DHT22;8799;43.594;13.526;2023-04-28T07:08:38;19.00;99.90
17364;DHT22;8799;43.594;13.526;2023-04-28T07:11:08;19.00;99.90
17364;DHT22;8799;43.594;13.526;2023-04-28T07:13:37;19.00;99.90
17364;DHT22;8799;43.594;13.526;2023-04-28T07:16:06;19.00;99.90
17364;DHT22;8799;43.594;13.526;2023-04-28T07:18:36;19.00;99.90
17364;DHT22;8799;43.594;13.526;2023-04-28T07:21:05;19.00;99.90
17364;DHT22;8799;43.594;13.526;2023-04-28T07:23:33;19.00;99.90
17364;DHT22;8799;43.594;13.526;2023-04-28T07:26:03;19.00;99.90
17364;DHT22;8799;43.594;13.526;2023-04-28T07:28:34;19.00;99.90
17364;DHT22;8799;43.594;13.526;2023-04-28T07:31:03;19.00;99.90
17364;DHT22;8799;43.594;13.526;2023-04-28T07:33:31;19.00;99.90
17364;DHT22;8799;43.594;13.526;2023-04-28T07:36:00;19.00;99.90
17364;DHT22;8799;43.594;13.526;2023-04-28T07:38:28;19.00;99.90
17364;DHT22;8799;43.594;13.526;2023-04-28T07:40:56;19.00;99.90
17364;DHT22;8799;43.594;13.526;2023-04-28T07:43:24;19.00;99.90
17364;DHT22;8799;43.594;13.526;2023-04-28T07:45:53;19.00;99.90
17364;DHT22;8799;43.594;13.526;2023-04-28T07:48:22;19.00;99.90
17364;DHT22;8799;43.594;13.526;2023-04-28T07:50:50;19.00;99.90
17364;DHT22;8799;43.594;13.526;2023-04-28T07:53:18;19.00;99.90
17364;DHT22;8799;43.594;13.526;2023-04-28T07:55:46;19.00;99.90
17364;DHT22;8799;43.594;13.526;2023-04-28T07:58:13;19.00;99.90
17364;DHT22;8799;43.594;13.526;2023-04-28T08:00:41;19.00;99.90
17364;DHT22;8799;43.594;13.526;2023-04-28T08:03:10;18.90;99.90
17364;DHT22;8799;43.594;13.526;2023-04-28T08:05:37;18.90;99.90
17364;DHT22;8799;43.594;13.526;2023-04-28T08:08:05;18.90;99.90
17364;DHT22;8799;43.594;13.526;2023-04-28T08:10:33;18.90;99.90
17364;DHT22;8799;43.594;13.526;2023-04-28T08:13:02;18.90;99.90
17364;DHT22;8799;43.594;13.526;2023-04-28T08:15:31;18.90;99.90
17364;DHT22;8799;43.594;13.526;2023-04-28T08:17:59;18.90;99.90
17364;DHT22;8799;43.594;13.526;2023-04-28T08:20:29;18.90;99.90
17364;DHT22;8799;43.594;13.526;2023-04-28T08:22:57;18.90;99.90
17364;DHT22;8799;43.594;13.526;2023-04-28T08:25:25;18.90;99.90
17364;DHT22;8799;43.594;13.526;2023-04-28T08:27:58;18.90;99.90
17364;DHT22;8799;43.594;13.526;2023-04-28T08:30:25;18.90;99.90
17364;DHT22;8799;43.594;13.526;2023-04-28T08:32:54;18.90;99.90
17364;DHT22;8799;43.594;13.526;2023-04-28T08:35:22;18.90;99.90
17364;DHT22;8799;43.594;13.526;2023-04-28T08:37:53;18.90;99.90
17364;DHT22;8799;43.594;13.526;2023-04-28T08:40:21;18.90;99.90
17364;DHT22;8799;43.594;13.526;2023-04-28T08:42:49;18.90;99.90
17364;DHT22;8799;43.594;13.526;2023-04-28T08:45:18;18.90;99.90
17364;DHT22;8799;43.594;13.526;2023-04-28T08:47:50;18.80;99.90
17364;DHT22;8799;43.594;13.526;2023-04-28T08:50:20;18.90;99.90
17364;DHT22;8799;43.594;13.526;2023-04-28T08:52:53;18.90;99.90
17364;DHT22;8799;43.594;13.526;2023-04-28T08:55:21;18.90;99.90
17364;DHT22;8799;43.594;13.526;2023-04-28T08:57:51;18.90;99.90
17364;DHT22;8799;43.594;13.526;2023-04-28T09:00:21;18.90;99.90
17364;DHT22;8799;43.594;13.526;2023-04-28T09:02:49;18.90;99.90
17364;DHT22;8799;43.594;13.526;2023-04-28T09:05:16;18.90;99.90
17364;DHT22;8799;43.594;13.526;2023-04-28T09:07:45;18.90;99.90
17364;DHT22;8799;43.594;13.526;2023-04-28T09:10:19;18.80;99.90
17364;DHT22;8799;43.594;13.526;2023-04-28T09:12:51;18.90;99.90
17364;DHT22;8799;43.594;13.526;2023-04-28T09:15:26;18.90;99.90
17364;DHT22;8799;43.594;13.526;2023-04-28T09:17:55;18.90;99.90
17364;DHT22;8799;43.594;13.526;2023-04-28T09:20:24;18.90;99.90
17364;DHT22;8799;43.594;13.526;2023-04-28T09:22:53;18.80;99.90
17364;DHT22;8799;43.594;13.526;2023-04-28T09:25:22;18.80;99.90
17364;DHT22;8799;43.594;13.526;2023-04-28T09:27:51;18.80;99.90
17364;DHT22;8799;43.594;13.526;2023-04-28T09:30:29;18.80;99.90
17364;DHT22;8799;43.594;13.526;2023-04-28T09:33:04;18.80;99.90
17364;DHT22;8799;43.594;13.526;2023-04-28T09:35:39;20.50;99.90
17364;DHT22;8799;43.594;13.526;2023-04-28T09:38:07;18.80;99.90
17364;DHT22;8799;43.594;13.526;2023-04-28T09:40:50;18.80;99.90
17364;DHT22;8799;43.594;13.526;2023-04-28T09:43:47;18.80;99.90
17364;DHT22;8799;43.594;13.526;2023-04-28T09:46:27;18.80;99.90
17364;DHT22;8799;43.594;13.526;2023-04-28T09:49:00;18.80;99.90
17364;DHT22;8799;43.594;13.526;2023-04-28T09:51:28;18.80;99.90
17364;DHT22;8799;43.594;13.526;2023-04-28T09:53:59;18.80;99.90
17364;DHT22;8799;43.594;13.526;2023-04-28T09:56:30;18.80;99.90
17364;DHT22;8799;43.594;13.526;2023-04-28T09:59:00;18.80;99.90
17364;DHT22;8799;43.594;13.526;2023-04-28T10:01:32;18.80;99.90
17364;DHT22;8799;43.594;13.526;2023-04-28T10:04:04;18.80;99.90
17364;DHT22;8799;43.594;13.526;2023-04-28T10:06:33;18.80;99.90
17364;DHT22;8799;43.594;13.526;2023-04-28T10:09:03;18.70;99.90
17364;DHT22;8799;43.594;13.526;2023-04-28T10:11:33;18.70;99.90
17364;DHT22;8799;43.594;13.526;2023-04-28T10:14:01;18.80;99.90
17364;DHT22;8799;43.594;13.526;2023-04-28T10:16:30;18.80;99.90
17364;DHT22;8799;43.594;13.526;2023-04-28T10:18:59;18.80;99.90
17364;DHT22;8799;43.594;13.526;2023-04-28T10:21:28;18.70;99.90
17364;DHT22;8799;43.594;13.526;2023-04-28T10:24:09;18.80;99.90
17364;DHT22;8799;43.594;13.526;2023-04-28T10:27:05;18.70;99.90
17364;DHT22;8799;43.594;13.526;2023-04-28T10:29:35;18.70;99.90
17364;DHT22;8799;43.594;13.526;2023-04-28T10:32:21;18.80;99.90
17364;DHT22;8799;43.594;13.526;2023-04-28T10:34:51;18.70;99.90
17364;DHT22;8799;43.594;13.526;2023-04-28T10:37:20;18.70;99.90
17364;DHT22;8799;43.594;13.526;2023-04-28T10:40:32;18.70;99.90
17364;DHT22;8799;43.594;13.526;2023-04-28T10:43:01;18.70;99.90
17364;DHT22;8799;43.594;13.526;2023-04-28T10:46:02;18.70;99.90
17364;DHT22;8799;43.594;13.526;2023-04-28T10:49:03;18.70;99.90
17364;DHT22;8799;43.594;13.526;2023-04-28T10:51:35;18.70;99.90
17364;DHT22;8799;43.594;13.526;2023-04-28T10:54:12;18.70;99.90
17364;DHT22;8799;43.594;13.526;2023-04-28T10:59:26;18.70;99.90
17364;DHT22;8799;43.594;13.526;2023-04-28T11:01:53;18.70;99.90
17364;DHT22;8799;43.594;13.526;2023-04-28T11:04:22;18.70;99.90
17364;DHT22;8799;43.594;13.526;2023-04-28T11:07:08;18.70;99.90
17364;DHT22;8799;43.594;13.526;2023-04-28T11:09:47;18.70;99.90
17364;DHT22;8799;43.594;13.526;2023-04-28T11:12:15;18.70;99.90
17364;DHT22;8799;43.594;13.526;2023-04-28T11:14:45;18.70;99.90
17364;DHT22;8799;43.594;13.526;2023-04-28T11:17:13;18.70;99.90
17364;DHT22;8799;43.594;13.526;2023-04-28T11:19:44;18.70;99.90
17364;DHT22;8799;43.594;13.526;2023-04-28T11:22:14;18.70;99.90
17364;DHT22;8799;43.594;13.526;2023-04-28T11:24:54;18.70;99.90
17364;DHT22;8799;43.594;13.526;2023-04-28T11:27:23;18.70;99.90
17364;DHT22;8799;43.594;13.526;2023-04-28T11:29:53;18.70;99.90
17364;DHT22;8799;43.594;13.526;2023-04-28T11:32:25;18.80;99.90
17364;DHT22;8799;43.594;13.526;2023-04-28T11:34:54;18.70;99.90
17364;DHT22;8799;43.594;13.526;2023-04-28T11:37:22;18.80;99.90
17364;DHT22;8799;43.594;13.526;2023-04-28T11:39:51;18.70;99.90
17364;DHT22;8799;43.594;13.526;2023-04-28T11:42:18;18.70;99.90
17364;DHT22;8799;43.594;13.526;2023-04-28T11:44:50;18.80;99.90
17364;DHT22;8799;43.594;13.526;2023-04-28T11:47:30;18.70;99.90
17364;DHT22;8799;43.594;13.526;2023-04-28T11:49:58;18.80;99.90
17364;DHT22;8799;43.594;13.526;2023-04-28T11:52:26;18.90;99.90
17364;DHT22;8799;43.594;13.526;2023-04-28T11:54:55;18.80;99.90
17364;DHT22;8799;43.594;13.526;2023-04-28T11:57:22;18.80;99.90
17364;DHT22;8799;43.594;13.526;2023-04-28T11:59:50;18.80;99.90
17364;DHT22;8799;43.594;13.526;2023-04-28T12:02:24;18.80;99.90
17364;DHT22;8799;43.594;13.526;2023-04-28T12:04:55;18.80;99.90
17364;DHT22;8799;43.594;13.526;2023-04-28T12:07:23;18.80;99.90
17364;DHT22;8799;43.594;13.526;2023-04-28T12:10:08;18.80;99.90
17364;DHT22;8799;43.594;13.526;2023-04-28T12:12:36;18.80;99.90
17364;DHT22;8799;43.594;13.526;2023-04-28T12:15:05;18.80;99.90
17364;DHT22;8799;43.594;13.526;2023-04-28T12:17:34;18.80;99.90
17364;DHT22;8799;43.594;13.526;2023-04-28T12:20:06;18.80;99.90
17364;DHT22;8799;43.594;13.526;2023-04-28T12:22:43;18.70;99.90
17364;DHT22;8799;43.594;13.526;2023-04-28T12:25:12;18.70;99.90
17364;DHT22;8799;43.594;13.526;2023-04-28T12:27:56;18.70;99.90
17364;DHT22;8799;43.594;13.526;2023-04-28T12:30:24;18.70;99.90
17364;DHT22;8799;43.594;13.526;2023-04-28T12:32:52;18.70;99.90
17364;DHT22;8799;43.594;13.526;2023-04-28T12:35:22;18.80;99.90
17364;DHT22;8799;43.594;13.526;2023-04-28T12:37:52;18.70;99.90
17364;DHT22;8799;43.594;13.526;2023-04-28T12:40:21;18.70;99.90
17364;DHT22;8799;43.594;13.526;2023-04-28T12:42:49;18.70;99.90
17364;DHT22;8799;43.594;13.526;2023-04-28T12:45:17;18.70;99.90
17364;DHT22;8799;43.594;13.526;2023-04-28T12:47:44;18.70;99.90
17364;DHT22;8799;43.594;13.526;2023-04-28T12:50:12;18.70;99.90
17364;DHT22;8799;43.594;13.526;2023-04-28T12:52:42;18.80;99.90
17364;DHT22;8799;43.594;13.526;2023-04-28T12:55:10;18.70;99.90
17364;DHT22;8799;43.594;13.526;2023-04-28T12:57:37;18.70;99.90
17364;DHT22;8799;43.594;13.526;2023-04-28T13:00:07;18.70;99.90
17364;DHT22;8799;43.594;13.526;2023-04-28T13:02:35;18.70;99.90
17364;DHT22;8799;43.594;13.526;2023-04-28T13:05:03;18.70;99.90
17364;DHT22;8799;43.594;13.526;2023-04-28T13:07:31;18.70;99.90
17364;DHT22;8799;43.594;13.526;2023-04-28T13:10:01;18.70;99.90
17364;DHT22;8799;43.594;13.526;2023-04-28T13:12:30;18.70;99.90
17364;DHT22;8799;43.594;13.526;2023-04-28T13:15:00;18.70;99.90
17364;DHT22;8799;43.594;13.526;2023-04-28T13:17:28;18.70;99.90
17364;DHT22;8799;43.594;13.526;2023-04-28T13:19:56;18.80;99.90
17364;DHT22;8799;43.594;13.526;2023-04-28T13:22:24;18.80;99.90
17364;DHT22;8799;43.594;13.526;2023-04-28T13:24:52;18.80;99.90
17364;DHT22;8799;43.594;13.526;2023-04-28T13:27:22;18.80;99.90
17364;DHT22;8799;43.594;13.526;2023-04-28T13:29:50;18.80;99.90
17364;DHT22;8799;43.594;13.526;2023-04-28T13:32:18;18.80;99.90
17364;DHT22;8799;43.594;13.526;2023-04-28T13:34:45;18.80;99.90
17364;DHT22;8799;43.594;13.526;2023-04-28T13:37:13;18.80;99.90
17364;DHT22;8799;43.594;13.526;2023-04-28T13:39:41;18.80;99.90
17364;DHT22;8799;43.594;13.526;2023-04-28T13:42:09;18.80;99.90
17364;DHT22;8799;43.594;13.526;2023-04-28T13:44:40;18.80;99.90
17364;DHT22;8799;43.594;13.526;2023-04-28T13:47:07;18.80;99.90
17364;DHT22;8799;43.594;13.526;2023-04-28T13:49:35;18.80;99.90
17364;DHT22;8799;43.594;13.526;2023-04-28T13:52:04;18.80;99.90
17364;DHT22;8799;43.594;13.526;2023-04-28T13:54:33;18.70;99.40
17364;DHT22;8799;43.594;13.526;2023-04-28T13:57:00;18.80;99.00
17364;DHT22;8799;43.594;13.526;2023-04-28T13:59:28;18.70;98.60
17364;DHT22;8799;43.594;13.526;2023-04-28T14:01:57;18.80;98.50
17364;DHT22;8799;43.594;13.526;2023-04-28T14:04:26;18.80;98.20
17364;DHT22;8799;43.594;13.526;2023-04-28T14:06:54;18.80;97.90
17364;DHT22;8799;43.594;13.526;2023-04-28T14:09:22;18.80;97.70
17364;DHT22;8799;43.594;13.526;2023-04-28T14:11:49;18.80;97.70
17364;DHT22;8799;43.594;13.526;2023-04-28T14:14:18;18.80;97.40
17364;DHT22;8799;43.594;13.526;2023-04-28T14:16:47;18.80;97.00
17364;DHT22;8799;43.594;13.526;2023-04-28T14:19:16;18.80;97.00
17364;DHT22;8799;43.594;13.526;2023-04-28T14:21:44;18.80;97.00
17364;DHT22;8799;43.594;13.526;2023-04-28T14:24:12;18.80;96.90
17364;DHT22;8799;43.594;13.526;2023-04-28T14:26:40;18.80;96.80
17364;DHT22;8799;43.594;13.526;2023-04-28T14:29:08;18.80;96.60
17364;DHT22;8799;43.594;13.526;2023-04-28T14:31:36;18.80;96.60
17364;DHT22;8799;43.594;13.526;2023-04-28T14:34:04;18.80;96.40
17364;DHT22;8799;43.594;13.526;2023-04-28T14:36:34;18.80;96.30
17364;DHT22;8799;43.594;13.526;2023-04-28T14:39:03;18.80;96.00
17364;DHT22;8799;43.594;13.526;2023-04-28T14:41:30;18.80;95.80
17364;DHT22;8799;43.594;13.526;2023-04-28T14:43:58;18.80;95.60
17364;DHT22;8799;43.594;13.526;2023-04-28T14:46:26;18.80;95.20
17364;DHT22;8799;43.594;13.526;2023-04-28T14:48:54;18.80;95.00
17364;DHT22;8799;43.594;13.526;2023-04-28T14:51:23;18.90;94.90
17364;DHT22;8799;43.594;13.526;2023-04-28T14:53:52;18.80;94.60
17364;DHT22;8799;43.594;13.526;2023-04-28T14:56:19;18.80;94.50
17364;DHT22;8799;43.594;13.526;2023-04-28T14:58:48;18.80;94.40
17364;DHT22;8799;43.594;13.526;2023-04-28T15:01:15;18.80;94.30
17364;DHT22;8799;43.594;13.526;2023-04-28T15:03:43;18.90;94.40
17364;DHT22;8799;43.594;13.526;2023-04-28T15:06:10;18.80;94.00
17364;DHT22;8799;43.594;13.526;2023-04-28T15:08:38;18.90;93.90
17364;DHT22;8799;43.594;13.526;2023-04-28T15:11:07;18.80;94.00
17364;DHT22;8799;43.594;13.526;2023-04-28T15:13:35;18.90;94.10
17364;DHT22;8799;43.594;13.526;2023-04-28T15:16:03;18.80;93.90
17364;DHT22;8799;43.594;13.526;2023-04-28T15:18:30;18.80;93.80
17364;DHT22;8799;43.594;13.526;2023-04-28T15:20:59;18.90;93.80
17364;DHT22;8799;43.594;13.526;2023-04-28T15:23:27;18.80;93.40
17364;DHT22;8799;43.594;13.526;2023-04-28T15:25:54;18.90;93.20
17364;DHT22;8799;43.594;13.526;2023-04-28T15:28:24;18.80;93.00
17364;DHT22;8799;43.594;13.526;2023-04-28T15:30:52;18.90;92.90
17364;DHT22;8799;43.594;13.526;2023-04-28T15:33:20;18.90;92.80
17364;DHT22;8799;43.594;13.526;2023-04-28T15:35:48;18.90;93.10
17364;DHT22;8799;43.594;13.526;2023-04-28T15:38:16;18.80;93.20
17364;DHT22;8799;43.594;13.526;2023-04-28T15:40:45;18.90;93.50
17364;DHT22;8799;43.594;13.526;2023-04-28T15:43:12;18.90;93.90
17364;DHT22;8799;43.594;13.526;2023-04-28T15:45:41;18.90;94.30